createdAt,value
2022-10-08T00:00:14.597Z,101618.66
2022-10-08T00:02:41.152Z,101624.28
2022-10-08T00:05:07.961Z,101619.78
2022-10-08T00:07:34.553Z,101615.28
2022-10-08T00:10:01.156Z,101622.03
2022-10-08T00:12:27.711Z,101623.22
2022-10-08T00:14:54.270Z,101628.84
2022-10-08T00:17:20.874Z,101629.97
2022-10-08T00:19:47.443Z,101635.88
2022-10-08T00:22:14.037Z,101630.25
2022-10-08T00:24:40.629Z,101641.50
2022-10-08T00:27:07.170Z,101639.81
2022-10-08T00:29:34.232Z,101642.63
2022-10-08T00:32:00.902Z,101646.63
2022-10-08T00:34:27.764Z,101651.41
2022-10-08T00:36:55.011Z,101648.88
2022-10-08T00:39:32.921Z,101650.84
2022-10-08T00:41:59.479Z,101651.13
2022-10-08T00:44:44.123Z,101667.19
2022-10-08T00:47:16.393Z,101671.97
2022-10-08T00:49:43.206Z,101664.13
2022-10-08T00:52:09.773Z,101676.22
2022-10-08T00:54:36.407Z,101675.38
2022-10-08T00:57:03.096Z,101678.50
2022-10-08T00:59:32.127Z,101686.09
2022-10-08T01:01:58.747Z,101687.22
2022-10-08T01:04:25.669Z,101682.72
2022-10-08T01:07:05.648Z,101685.53
2022-10-08T01:09:35.097Z,101683.06
2022-10-08T01:12:17.983Z,101684.19
2022-10-08T01:14:54.114Z,101684.47
2022-10-08T01:17:26.705Z,101685.59
2022-10-08T01:20:05.717Z,101687.56
2022-10-08T01:22:32.242Z,101685.91
2022-10-08T01:25:21.136Z,101687.03
2022-10-08T01:27:54.020Z,101687.34
2022-10-08T01:30:20.749Z,101689.31
2022-10-08T01:32:51.406Z,101696.09
2022-10-08T01:35:20.688Z,101692.44
2022-10-08T01:37:48.590Z,101699.19
2022-10-08T01:40:18.236Z,101702.00
2022-10-08T01:42:45.425Z,101697.50
2022-10-08T01:45:15.428Z,101700.59
2022-10-08T01:47:43.428Z,101700.59
2022-10-08T01:50:13.079Z,101706.53
2022-10-08T01:53:06.067Z,101702.88
2022-10-08T01:55:37.539Z,101702.03
2022-10-08T01:58:07.201Z,101707.09
2022-10-08T02:00:35.848Z,101709.91
2022-10-08T02:03:02.506Z,101704.63
2022-10-08T02:05:32.303Z,101704.63
2022-10-08T02:07:58.902Z,101703.22
2022-10-08T02:10:26.382Z,101712.50
2022-10-08T02:12:52.967Z,101724.06
2022-10-08T02:15:25.106Z,101717.59
2022-10-08T02:18:06.506Z,101721.53
2022-10-08T02:20:36.645Z,101726.31
2022-10-08T02:23:11.319Z,101720.97
2022-10-08T02:25:41.939Z,101720.13
2022-10-08T02:28:14.713Z,101721.28
2022-10-08T02:30:46.827Z,101723.53
2022-10-08T02:33:21.653Z,101716.22
2022-10-08T02:35:50.975Z,101719.38
2022-10-08T02:38:21.012Z,101732.56
2022-10-08T02:40:50.487Z,101737.34
2022-10-08T02:43:20.566Z,101733.69
2022-10-08T02:45:58.192Z,101732.00
2022-10-08T02:48:30.018Z,101731.50
2022-10-08T02:50:57.715Z,101735.44
2022-10-08T02:53:25.552Z,101741.88
2022-10-08T02:56:10.688Z,101748.63
2022-10-08T02:58:37.455Z,101740.50
2022-10-08T03:01:09.193Z,101746.09
2022-10-08T03:03:37.508Z,101750.06
2022-10-08T03:06:06.881Z,101742.78
2022-10-08T03:08:36.787Z,101744.75
2022-10-08T03:11:04.227Z,101746.72
2022-10-08T03:13:34.116Z,101751.75
2022-10-08T03:16:00.841Z,101752.59
2022-10-08T03:18:27.664Z,101744.50
2022-10-08T03:20:54.801Z,101745.63
2022-10-08T03:23:21.516Z,101747.59
2022-10-08T03:25:48.185Z,101747.59
2022-10-08T03:28:14.807Z,101755.19
2022-10-08T03:30:41.547Z,101761.91
2022-10-08T03:33:08.245Z,101767.81
2022-10-08T03:35:34.883Z,101763.31
2022-10-08T03:38:01.671Z,101770.91
2022-10-08T03:40:28.614Z,101768.38
2022-10-08T03:42:55.296Z,101778.78
2022-10-08T03:45:22.093Z,101776.28
2022-10-08T03:47:52.680Z,101776.56
2022-10-08T03:50:20.416Z,101786.13
2022-10-08T03:52:47.374Z,101785.59
2022-10-08T03:55:14.278Z,101775.19
2022-10-08T03:57:41.036Z,101783.91
2022-10-08T04:00:08.086Z,101781.09
2022-10-08T04:02:34.933Z,101790.97
2022-10-08T04:05:01.924Z,101798.53
2022-10-08T04:07:28.805Z,101806.13
2022-10-08T04:09:55.383Z,101805.56
2022-10-08T04:12:21.997Z,101816.81
2022-10-08T04:14:48.690Z,101825.22
2022-10-08T04:17:15.323Z,101832.28
2022-10-08T04:19:41.927Z,101827.78
2022-10-08T04:22:08.545Z,101841.84
2022-10-08T04:24:35.103Z,101836.50
2022-10-08T04:27:01.699Z,101839.31
2022-10-08T04:29:29.257Z,101837.66
2022-10-08T04:31:55.872Z,101843.53
2022-10-08T04:34:22.545Z,101849.16
2022-10-08T04:36:49.146Z,101856.75
2022-10-08T04:39:15.856Z,101861.53
2022-10-08T04:41:42.442Z,101863.50
2022-10-08T04:44:09.103Z,101872.22
2022-10-08T04:46:35.814Z,101865.75
2022-10-08T04:49:02.546Z,101862.09
2022-10-08T04:51:29.216Z,101863.22
2022-10-08T04:53:56.804Z,101872.78
2022-10-08T04:56:24.789Z,101880.34
2022-10-08T04:58:51.446Z,101885.13
2022-10-08T05:01:19.220Z,101884.31
2022-10-08T05:03:46.963Z,101891.06
2022-10-08T05:06:15.101Z,101891.91
2022-10-08T05:08:41.670Z,101909.88
2022-10-08T05:11:08.342Z,101903.69
2022-10-08T05:13:35.322Z,101906.50
2022-10-08T05:16:08.282Z,101916.06
2022-10-08T05:18:35.545Z,101909.63
2022-10-08T05:21:12.215Z,101905.97
2022-10-08T05:23:39.247Z,101909.03
2022-10-08T05:26:16.018Z,101911.00
2022-10-08T05:28:43.239Z,101916.63
2022-10-08T05:31:09.954Z,101914.97
2022-10-08T05:33:37.064Z,101918.06
2022-10-08T05:36:04.672Z,101928.44
2022-10-08T05:38:34.783Z,101927.59
2022-10-08T05:41:08.999Z,101936.03
2022-10-08T05:43:35.652Z,101937.16
2022-10-08T05:46:02.334Z,101946.72
2022-10-08T05:48:29.008Z,101952.59
2022-10-08T05:50:55.704Z,101949.81
2022-10-08T05:53:22.328Z,101959.34
2022-10-08T05:55:48.989Z,101968.88
2022-10-08T05:58:15.567Z,101963.28
2022-10-08T06:00:42.149Z,101971.16
2022-10-08T06:03:08.770Z,101973.97
2022-10-08T06:05:35.412Z,101972.28
2022-10-08T06:08:01.978Z,101987.44
2022-10-08T06:10:30.196Z,101981.28
2022-10-08T06:12:56.778Z,101979.59
2022-10-08T06:15:23.391Z,101979.59
2022-10-08T06:17:50.869Z,101989.13
2022-10-08T06:20:17.582Z,101987.44
2022-10-08T06:22:44.302Z,101986.59
2022-10-08T06:25:11.491Z,101993.34
2022-10-08T06:27:38.183Z,101992.50
2022-10-08T06:30:04.977Z,101993.63
2022-10-08T06:32:31.619Z,102007.66
2022-10-08T06:34:58.798Z,102002.31
2022-10-08T06:37:25.360Z,101997.84
2022-10-08T06:39:51.954Z,102006.56
2022-10-08T06:42:18.593Z,102014.97
2022-10-08T06:44:45.247Z,102015.25
2022-10-08T06:47:11.877Z,102016.09
2022-10-08T06:49:39.990Z,102029.28
2022-10-08T06:52:06.834Z,102027.59
2022-10-08T06:54:33.407Z,102029.59
2022-10-08T06:56:59.987Z,102038.00
2022-10-08T06:59:29.197Z,102047.53
2022-10-08T07:01:55.883Z,102047.53
2022-10-08T07:04:22.620Z,102051.47
2022-10-08T07:06:49.249Z,102060.16
2022-10-08T07:09:15.915Z,102053.69
2022-10-08T07:11:42.565Z,102061.31
2022-10-08T07:14:09.124Z,102066.06
2022-10-08T07:16:35.841Z,102067.19
2022-10-08T07:19:02.578Z,102075.63
2022-10-08T07:21:29.802Z,102080.38
2022-10-08T07:23:56.608Z,102075.03
2022-10-08T07:26:24.996Z,102086.25
2022-10-08T07:28:53.657Z,102083.75
2022-10-08T07:31:22.212Z,102089.38
2022-10-08T07:33:49.227Z,102093.28
2022-10-08T07:36:17.265Z,102099.75
2022-10-08T07:38:44.486Z,102100.88
2022-10-08T07:41:12.104Z,102101.97
2022-10-08T07:43:43.198Z,102105.91
2022-10-08T07:46:11.150Z,102107.91
2022-10-08T07:48:38.074Z,102117.13
2022-10-08T07:51:11.372Z,102116.31
2022-10-08T07:53:38.439Z,102128.63
2022-10-08T07:56:05.854Z,102127.78
2022-10-08T07:58:32.474Z,102128.03
2022-10-08T08:01:00.228Z,102124.38
2022-10-08T08:03:27.100Z,102128.34
2022-10-08T08:05:54.543Z,102138.41
2022-10-08T08:08:25.071Z,102131.97
2022-10-08T08:10:58.582Z,102137.03
2022-10-08T08:13:25.572Z,102142.06
2022-10-08T08:15:59.700Z,102144.03
2022-10-08T08:18:31.059Z,102151.91
2022-10-08T08:20:59.518Z,102150.22
2022-10-08T08:23:30.573Z,102142.91
2022-10-08T08:26:01.256Z,102153.59
2022-10-08T08:28:29.337Z,102153.00
2022-10-08T08:31:06.372Z,102154.97
2022-10-08T08:33:33.178Z,102158.06
2022-10-08T08:36:00.295Z,102165.63
2022-10-08T08:38:27.259Z,102168.72
2022-10-08T08:40:57.866Z,102177.13
2022-10-08T08:43:25.692Z,102173.47
2022-10-08T08:45:53.893Z,102177.13
2022-10-08T08:48:29.108Z,102179.34
2022-10-08T08:50:57.901Z,102179.38
2022-10-08T08:53:25.088Z,102182.94
2022-10-08T08:55:56.967Z,102188.16
2022-10-08T08:58:34.650Z,102181.38
2022-10-08T09:01:21.509Z,102191.78
2022-10-08T09:03:51.237Z,102187.56
2022-10-08T09:06:20.291Z,102194.34
2022-10-08T09:09:05.527Z,102189.88
2022-10-08T09:11:32.179Z,102198.03
2022-10-08T09:14:22.772Z,102196.69
2022-10-08T09:16:49.602Z,102199.78
2022-10-08T09:19:16.255Z,102195.59
2022-10-08T09:21:42.845Z,102209.66
2022-10-08T09:24:09.984Z,102206.00
2022-10-08T09:26:36.885Z,102209.69
2022-10-08T09:29:04.927Z,102207.16
2022-10-08T09:31:38.582Z,102202.69
2022-10-08T09:34:15.026Z,102209.16
2022-10-08T09:36:41.654Z,102203.88
2022-10-08T09:39:26.950Z,102195.47
2022-10-08T09:42:08.562Z,102195.75
2022-10-08T09:44:59.473Z,102194.06
2022-10-08T09:47:26.844Z,102207.28
2022-10-08T09:50:06.055Z,102205.06
2022-10-08T09:52:34.866Z,102198.88
2022-10-08T09:55:03.424Z,102192.72
2022-10-08T09:57:31.265Z,102203.09
2022-10-08T09:59:59.873Z,102198.03
2022-10-08T10:02:31.522Z,102202.28
2022-10-08T10:04:59.575Z,102199.75
2022-10-08T10:07:36.249Z,102203.97
2022-10-08T10:10:03.696Z,102198.59
2022-10-08T10:12:36.885Z,102201.16
2022-10-08T10:15:15.875Z,102206.19
2022-10-08T10:17:49.642Z,102212.38
2022-10-08T10:20:22.378Z,102203.69
2022-10-08T10:23:09.014Z,102203.13
2022-10-08T10:25:41.768Z,102203.66
2022-10-08T10:28:14.469Z,102201.44
2022-10-08T10:31:01.852Z,102201.72
2022-10-08T10:33:37.332Z,102201.97
2022-10-08T10:36:07.755Z,102199.47
2022-10-08T10:38:42.814Z,102203.09
2022-10-08T10:41:28.573Z,102196.09
2022-10-08T10:44:00.730Z,102193.59
2022-10-08T10:47:06.729Z,102204.56
2022-10-08T10:49:39.991Z,102203.13
2022-10-08T10:52:24.036Z,102207.59
2022-10-08T10:55:04.428Z,102211.56
2022-10-08T10:57:39.807Z,102201.44
2022-10-08T11:00:10.056Z,102208.19
2022-10-08T11:02:36.760Z,102207.31
2022-10-08T11:05:21.941Z,102203.97
2022-10-08T11:07:54.481Z,102201.69
2022-10-08T11:10:35.770Z,102204.81
2022-10-08T11:13:08.235Z,102199.47
2022-10-08T11:15:58.019Z,102199.75
2022-10-08T11:18:33.838Z,102205.63
2022-10-08T11:21:06.489Z,102206.47
2022-10-08T11:23:33.071Z,102200.31
2022-10-08T11:26:21.417Z,102204.25
2022-10-08T11:28:51.873Z,102211.25
2022-10-08T11:31:18.590Z,102200.88
2022-10-08T11:33:45.938Z,102209.88
2022-10-08T11:36:12.559Z,102216.63
2022-10-08T11:38:44.403Z,102210.69
2022-10-08T11:41:10.963Z,102209.34
2022-10-08T11:43:39.900Z,102206.25
2022-10-08T11:46:34.502Z,102205.94
2022-10-08T11:49:02.286Z,102201.75
2022-10-08T11:51:33.439Z,102201.75
2022-10-08T11:54:05.648Z,102211.03
2022-10-08T11:56:34.071Z,102214.38
2022-10-08T11:59:04.595Z,102202.88
2022-10-08T12:01:31.182Z,102208.50
2022-10-08T12:04:17.227Z,102206.53
2022-10-08T12:06:45.975Z,102191.63
2022-10-08T12:09:39.398Z,102198.38
2022-10-08T12:12:12.694Z,102193.59
2022-10-08T12:14:45.761Z,102192.47
2022-10-08T12:17:12.370Z,102196.94
2022-10-08T12:19:38.945Z,102195.56
2022-10-08T12:22:25.527Z,102192.16
2022-10-08T12:24:53.474Z,102195.28
2022-10-08T12:27:20.051Z,102193.28
2022-10-08T12:30:00.375Z,102190.47
2022-10-08T12:32:31.600Z,102194.13
2022-10-08T12:34:58.697Z,102190.19
2022-10-08T12:37:28.633Z,102200.59
2022-10-08T12:39:56.039Z,102193.84
2022-10-08T12:42:32.848Z,102190.19
2022-10-08T12:45:17.596Z,102198.63
2022-10-08T12:47:51.438Z,102189.34
2022-10-08T12:50:28.845Z,102195.28
2022-10-08T12:52:55.568Z,102193.28
2022-10-08T12:55:23.444Z,102175.59
2022-10-08T12:57:51.382Z,102176.41
2022-10-08T13:00:32.072Z,102179.22
2022-10-08T13:02:59.019Z,102178.41
2022-10-08T13:05:33.463Z,102178.41
2022-10-08T13:08:17.320Z,102177.56
2022-10-08T13:10:43.998Z,102165.47
2022-10-08T13:13:29.357Z,102167.44
2022-10-08T13:16:02.709Z,102162.09
2022-10-08T13:18:30.535Z,102161.81
2022-10-08T13:21:01.351Z,102161.53
2022-10-08T13:23:33.896Z,102157.03
2022-10-08T13:26:00.992Z,102163.78
2022-10-08T13:28:58.597Z,102169.41
2022-10-08T13:31:23.535Z,102172.22
2022-10-08T13:33:50.225Z,102163.78
2022-10-08T13:36:21.215Z,102163.78
2022-10-08T13:38:47.833Z,102174.75
2022-10-08T13:41:23.604Z,102169.97
2022-10-08T13:43:50.614Z,102171.94
2022-10-08T13:46:17.238Z,102175.59
2022-10-08T13:48:44.252Z,102175.88
2022-10-08T13:51:11.213Z,102179.81
2022-10-08T13:53:38.023Z,102180.97
2022-10-08T13:56:05.815Z,102181.78
2022-10-08T13:58:32.966Z,102180.13
2022-10-08T14:00:59.612Z,102184.03
2022-10-08T14:03:26.315Z,102180.38
2022-10-08T14:05:52.916Z,102182.06
2022-10-08T14:08:27.914Z,102179.53
2022-10-08T14:10:58.228Z,102185.16
2022-10-08T14:13:25.396Z,102176.97
2022-10-08T14:15:52.088Z,102178.13
2022-10-08T14:18:18.678Z,102180.06
2022-10-08T14:20:45.333Z,102166.03
2022-10-08T14:23:13.458Z,102172.75
2022-10-08T14:25:40.053Z,102172.75
2022-10-08T14:28:06.704Z,102169.97
2022-10-08T14:30:33.325Z,102174.72
2022-10-08T14:32:59.975Z,102166.31
2022-10-08T14:35:26.607Z,102169.97
2022-10-08T14:37:53.342Z,102175.84
2022-10-08T14:40:21.413Z,102166.56
2022-10-08T14:42:48.383Z,102170.53
2022-10-08T14:45:15.495Z,102159.56
2022-10-08T14:47:42.416Z,102162.66
2022-10-08T14:50:09.317Z,102165.47
2022-10-08T14:52:43.243Z,102162.09
2022-10-08T14:55:10.878Z,102164.34
2022-10-08T14:57:37.463Z,102161.53
2022-10-08T15:00:04.603Z,102154.22
2022-10-08T15:02:31.291Z,102158.19
2022-10-08T15:04:57.876Z,102156.47
2022-10-08T15:07:24.475Z,102157.59
2022-10-08T15:09:51.080Z,102154.78
2022-10-08T15:12:17.666Z,102155.91
2022-10-08T15:14:44.376Z,102152.25
2022-10-08T15:17:11.074Z,102157.31
2022-10-08T15:19:37.647Z,102156.47
2022-10-08T15:22:04.215Z,102153.94
2022-10-08T15:24:31.255Z,102152.81
2022-10-08T15:26:58.017Z,102155.09
2022-10-08T15:29:40.865Z,102157.91
2022-10-08T15:32:07.593Z,102152.56
2022-10-08T15:34:34.277Z,102153.66
2022-10-08T15:37:00.889Z,102152.81
2022-10-08T15:39:36.103Z,102153.13
2022-10-08T15:42:03.063Z,102153.13
2022-10-08T15:44:31.042Z,102153.13
2022-10-08T15:46:59.993Z,102156.22
2022-10-08T15:49:40.875Z,102149.75
2022-10-08T15:52:08.749Z,102149.75
2022-10-08T15:54:36.373Z,102150.00
2022-10-08T15:57:03.138Z,102137.13
2022-10-08T15:59:36.769Z,102147.50
2022-10-08T16:02:03.779Z,102148.63
2022-10-08T16:04:30.443Z,102143.00
2022-10-08T16:06:57.059Z,102132.03
2022-10-08T16:09:40.161Z,102143.56
2022-10-08T16:12:06.876Z,102145.53
2022-10-08T16:14:33.659Z,102141.88
2022-10-08T16:17:00.463Z,102138.22
2022-10-08T16:19:29.818Z,102144.13
2022-10-08T16:21:57.263Z,102148.06
2022-10-08T16:24:24.404Z,102134.31
2022-10-08T16:26:51.026Z,102139.06
2022-10-08T16:29:25.325Z,102143.00
2022-10-08T16:31:51.978Z,102148.63
2022-10-08T16:34:22.777Z,102138.50
2022-10-08T16:36:49.712Z,102138.50
2022-10-08T16:39:18.346Z,102134.03
2022-10-08T16:41:45.490Z,102136.25
2022-10-08T16:44:13.655Z,102140.75
2022-10-08T16:46:41.706Z,102137.38
2022-10-08T16:49:13.495Z,102138.53
2022-10-08T16:51:40.175Z,102144.13
2022-10-08T16:54:08.378Z,102147.75
2022-10-08T16:56:36.876Z,102145.25
2022-10-08T16:59:06.053Z,102146.09
2022-10-08T17:01:33.140Z,102150.56
2022-10-08T17:04:00.222Z,102148.59
2022-10-08T17:06:27.959Z,102145.53
2022-10-08T17:08:54.882Z,102145.81
2022-10-08T17:11:21.745Z,102150.31
2022-10-08T17:13:50.186Z,102146.94
2022-10-08T17:16:17.862Z,102149.75
2022-10-08T17:18:44.946Z,102149.16
2022-10-08T17:21:12.461Z,102156.22
2022-10-08T17:23:40.834Z,102153.94
2022-10-08T17:26:08.994Z,102152.56
2022-10-08T17:28:37.282Z,102155.38
2022-10-08T17:31:06.484Z,102156.75
2022-10-08T17:33:36.004Z,102159.00
2022-10-08T17:36:07.650Z,102165.19
2022-10-08T17:38:35.114Z,102168.53
2022-10-08T17:41:08.914Z,102162.69
2022-10-08T17:43:35.503Z,102163.25
2022-10-08T17:46:09.521Z,102175.03
2022-10-08T17:48:36.282Z,102169.97
2022-10-08T17:51:04.240Z,102164.06
2022-10-08T17:53:31.031Z,102171.09
2022-10-08T17:56:01.709Z,102177.84
2022-10-08T17:58:28.312Z,102176.72
2022-10-08T18:01:02.035Z,102171.63
2022-10-08T18:03:28.684Z,102180.66
2022-10-08T18:05:56.507Z,102175.88
2022-10-08T18:08:23.152Z,102180.38
2022-10-08T18:10:49.755Z,102183.72
2022-10-08T18:13:16.380Z,102186.53
2022-10-08T18:15:43.084Z,102191.88
2022-10-08T18:18:09.790Z,102189.91
2022-10-08T18:20:36.373Z,102192.16
2022-10-08T18:23:03.172Z,102188.50
2022-10-08T18:25:29.740Z,102189.34
2022-10-08T18:27:56.776Z,102191.88
2022-10-08T18:30:23.481Z,102190.72
2022-10-08T18:32:50.456Z,102200.84
2022-10-08T18:35:17.340Z,102193.25
2022-10-08T18:37:44.249Z,102194.97
2022-10-08T18:40:10.825Z,102203.38
2022-10-08T18:42:37.401Z,102201.44
2022-10-08T18:45:04.281Z,102205.34
2022-10-08T18:47:30.854Z,102201.44
2022-10-08T18:49:58.454Z,102195.81
2022-10-08T18:52:27.327Z,102196.66
2022-10-08T18:54:53.959Z,102205.94
2022-10-08T18:57:20.556Z,102200.56
2022-10-08T18:59:48.784Z,102202.53
2022-10-08T19:02:15.505Z,102212.94
2022-10-08T19:04:42.265Z,102206.47
2022-10-08T19:07:08.982Z,102202.81
2022-10-08T19:09:35.555Z,102211.56
2022-10-08T19:12:02.519Z,102210.72
2022-10-08T19:14:29.256Z,102209.88
2022-10-08T19:16:55.918Z,102214.66
2022-10-08T19:19:32.077Z,102209.28
2022-10-08T19:22:01.973Z,102206.78
2022-10-08T19:24:29.019Z,102207.63
2022-10-08T19:26:56.193Z,102203.97
2022-10-08T19:29:29.010Z,102209.03
2022-10-08T19:31:56.075Z,102205.66
2022-10-08T19:34:24.919Z,102211.28
2022-10-08T19:36:51.575Z,102210.44
2022-10-08T19:39:31.177Z,102211.28
2022-10-08T19:41:58.077Z,102205.94
2022-10-08T19:44:24.928Z,102201.44
2022-10-08T19:46:52.069Z,102211.00
2022-10-08T19:49:18.847Z,102207.34
2022-10-08T19:51:45.809Z,102202.03
2022-10-08T19:54:13.073Z,102206.78
2022-10-08T19:56:40.099Z,102207.91
2022-10-08T19:59:06.785Z,102214.38
2022-10-08T20:01:35.136Z,102211.84
2022-10-08T20:04:02.777Z,102210.72
2022-10-08T20:06:31.218Z,102213.81
2022-10-08T20:09:01.836Z,102205.38
2022-10-08T20:11:29.687Z,102209.34
2022-10-08T20:13:57.021Z,102206.78
2022-10-08T20:16:28.494Z,102200.59
2022-10-08T20:18:59.525Z,102206.22
2022-10-08T20:21:27.100Z,102201.75
2022-10-08T20:23:54.012Z,102205.69
2022-10-08T20:26:24.934Z,102200.31
2022-10-08T20:28:52.956Z,102207.06
2022-10-08T20:31:19.606Z,102209.34
2022-10-08T20:33:46.630Z,102205.69
2022-10-08T20:36:14.561Z,102208.75
2022-10-08T20:38:41.388Z,102212.69
2022-10-08T20:41:08.548Z,102200.88
2022-10-08T20:43:35.911Z,102209.56
2022-10-08T20:46:03.735Z,102212.69
2022-10-08T20:48:34.146Z,102212.97
2022-10-08T20:51:01.460Z,102204.78
2022-10-08T20:53:28.066Z,102212.09
2022-10-08T20:55:54.751Z,102216.03
2022-10-08T20:58:21.323Z,102209.88
2022-10-08T21:00:47.990Z,102215.50
2022-10-08T21:03:14.662Z,102206.22
2022-10-08T21:05:43.255Z,102208.19
2022-10-08T21:08:09.976Z,102209.28
2022-10-08T21:10:37.533Z,102202.84
2022-10-08T21:13:04.601Z,102204.25
2022-10-08T21:15:31.281Z,102208.44
2022-10-08T21:17:57.861Z,102208.75
2022-10-08T21:20:24.703Z,102209.88
2022-10-08T21:22:52.066Z,102210.97
2022-10-08T21:25:18.707Z,102216.88
2022-10-08T21:27:45.490Z,102213.25
2022-10-08T21:30:12.610Z,102216.06
2022-10-08T21:32:39.318Z,102218.88
2022-10-08T21:35:06.023Z,102215.47
2022-10-08T21:37:32.781Z,102213.53
2022-10-08T21:39:59.364Z,102223.66
2022-10-08T21:42:25.978Z,102220.84
2022-10-08T21:44:52.633Z,102223.91
2022-10-08T21:47:19.209Z,102214.63
2022-10-08T21:50:07.462Z,102220.53
2022-10-08T21:58:59.942Z,102220.81
2022-10-08T22:01:31.496Z,102222.53
2022-10-08T22:04:02.236Z,102218.00
2022-10-08T22:06:29.805Z,102206.78
2022-10-08T22:08:57.178Z,102205.09
2022-10-08T22:11:24.002Z,102207.06
2022-10-08T22:13:50.979Z,102210.97
2022-10-08T22:16:18.891Z,102204.50
2022-10-08T22:18:45.836Z,102208.16
2022-10-08T22:21:13.825Z,102209.31
2022-10-08T22:23:40.400Z,102207.63
2022-10-08T22:26:08.695Z,102199.19
2022-10-08T22:28:35.514Z,102200.31
2022-10-08T22:31:03.242Z,102201.41
2022-10-08T22:33:30.383Z,102198.63
2022-10-08T22:36:03.784Z,102194.97
2022-10-08T22:38:34.085Z,102194.13
2022-10-08T22:41:02.093Z,102196.09
2022-10-08T22:43:28.780Z,102191.59
2022-10-08T22:45:55.646Z,102185.41
2022-10-08T22:48:22.400Z,102185.72
2022-10-08T22:50:49.092Z,102184.88
2022-10-08T22:53:17.224Z,102171.09
2022-10-08T22:55:43.940Z,102170.25
2022-10-08T22:58:12.258Z,102166.88
2022-10-08T23:00:39.012Z,102169.13
2022-10-08T23:03:05.703Z,102171.94
2022-10-08T23:05:32.353Z,102162.09
2022-10-08T23:07:59.272Z,102156.75
2022-10-08T23:10:26.018Z,102154.22
2022-10-08T23:12:53.926Z,102155.38
2022-10-08T23:15:21.188Z,102153.69
2022-10-08T23:17:50.878Z,102147.50
2022-10-08T23:20:17.608Z,102149.44
2022-10-08T23:22:44.213Z,102146.09
2022-10-08T23:25:10.850Z,102142.44
2022-10-08T23:27:37.519Z,102149.75
2022-10-08T23:30:04.323Z,102144.66
2022-10-08T23:32:31.011Z,102143.00
2022-10-08T23:34:58.208Z,102134.00
2022-10-08T23:37:24.854Z,102127.56
2022-10-08T23:39:57.702Z,102125.00
2022-10-08T23:42:24.617Z,102132.63
2022-10-08T23:44:51.187Z,102128.13
2022-10-08T23:47:20.779Z,102130.34
2022-10-08T23:49:47.425Z,102123.88
2022-10-08T23:52:14.125Z,102121.94
2022-10-08T23:54:40.711Z,102116.59
2022-10-08T23:57:07.389Z,102112.13
2022-10-08T23:59:33.994Z,102105.94
